Terminal Aerodrome Forecast
Issued by NWS

Home | Current Version | Previous Version | Text Only | Print | Product List | Glossary On
Versions: 1 2 3 4 5 6 7 8 9 10 11 12 13 14 15 16 17 18 19 20 21 22 23 24 25 26
000
FTUS43 KDLH 252300
TAFBRD
TAF
KBRD 252338Z 2600/2624 17003KT P6SM SCT035
      TEMPO 2600/2604 BKN025
     FM260400 VRB03KT P6SM -SN SCT012 OVC035
     FM260900 02007KT 1 1/2SM -SN BR OVC015
     FM261900 34012KT P6SM -SN BKN020 OVC050
     FM262200 34012KT P6SM SCT050=

USA.gov is the U.S. government's official web portal to all federal, state and local government web resources and services.